sensor_id;sensor_type;location;lat;lon;timestamp;P1;durP1;ratioP1;P2;durP2;ratioP2
68655;SDS011;55638;51.122;13.606;2023-07-28T00:00:00;0.30;;;0.20;;
68655;SDS011;55638;51.122;13.606;2023-07-28T00:01:32;0.22;;;0.10;;
68655;SDS011;55638;51.122;13.606;2023-07-28T00:03:04;0.55;;;0.20;;
68655;SDS011;55638;51.122;13.606;2023-07-28T00:04:36;0.68;;;0.20;;
68655;SDS011;55638;51.122;13.606;2023-07-28T00:06:08;0.57;;;0.25;;
68655;SDS011;55638;51.122;13.606;2023-07-28T00:07:40;0.30;;;0.20;;
68655;SDS011;55638;51.122;13.606;2023-07-28T00:09:12;0.30;;;0.20;;
68655;SDS011;55638;51.122;13.606;2023-07-28T00:10:44;0.40;;;0.40;;
68655;SDS011;55638;51.122;13.606;2023-07-28T00:12:16;1.00;;;0.30;;
68655;SDS011;55638;51.122;13.606;2023-07-28T00:13:48;0.20;;;0.20;;
68655;SDS011;55638;51.122;13.606;2023-07-28T00:15:20;0.20;;;0.20;;
68655;SDS011;55638;51.122;13.606;2023-07-28T00:16:52;0.30;;;0.28;;
68655;SDS011;55638;51.122;13.606;2023-07-28T00:18:28;0.20;;;0.15;;
68655;SDS011;55638;51.122;13.606;2023-07-28T00:20:00;0.20;;;0.20;;
68655;SDS011;55638;51.122;13.606;2023-07-28T00:21:32;0.30;;;0.20;;
68655;SDS011;55638;51.122;13.606;2023-07-28T00:23:04;0.20;;;0.20;;
68655;SDS011;55638;51.122;13.606;2023-07-28T00:24:36;0.20;;;0.17;;
68655;SDS011;55638;51.122;13.606;2023-07-28T00:26:08;0.38;;;0.20;;
68655;SDS011;55638;51.122;13.606;2023-07-28T00:27:40;0.20;;;0.20;;
68655;SDS011;55638;51.122;13.606;2023-07-28T00:29:11;0.25;;;0.25;;
68655;SDS011;55638;51.122;13.606;2023-07-28T00:30:43;1.00;;;0.20;;
68655;SDS011;55638;51.122;13.606;2023-07-28T00:32:16;0.88;;;0.28;;
68655;SDS011;55638;51.122;13.606;2023-07-28T00:33:48;1.23;;;0.30;;
68655;SDS011;55638;51.122;13.606;2023-07-28T00:35:20;0.40;;;0.30;;
68655;SDS011;55638;51.122;13.606;2023-07-28T00:36:51;0.28;;;0.20;;
68655;SDS011;55638;51.122;13.606;2023-07-28T00:38:23;1.08;;;0.20;;
68655;SDS011;55638;51.122;13.606;2023-07-28T00:39:55;0.30;;;0.30;;
68655;SDS011;55638;51.122;13.606;2023-07-28T00:41:27;0.45;;;0.30;;
68655;SDS011;55638;51.122;13.606;2023-07-28T00:42:59;0.25;;;0.25;;
68655;SDS011;55638;51.122;13.606;2023-07-28T00:44:31;0.30;;;0.20;;
68655;SDS011;55638;51.122;13.606;2023-07-28T00:46:03;0.40;;;0.30;;
68655;SDS011;55638;51.122;13.606;2023-07-28T00:47:35;0.38;;;0.30;;
68655;SDS011;55638;51.122;13.606;2023-07-28T00:49:08;0.43;;;0.40;;
68655;SDS011;55638;51.122;13.606;2023-07-28T00:50:41;0.30;;;0.30;;
68655;SDS011;55638;51.122;13.606;2023-07-28T00:52:13;0.30;;;0.30;;
68655;SDS011;55638;51.122;13.606;2023-07-28T00:53:45;0.60;;;0.30;;
68655;SDS011;55638;51.122;13.606;2023-07-28T00:55:17;0.65;;;0.30;;
68655;SDS011;55638;51.122;13.606;2023-07-28T00:56:50;1.40;;;0.40;;
68655;SDS011;55638;51.122;13.606;2023-07-28T00:58:22;0.30;;;0.30;;
68655;SDS011;55638;51.122;13.606;2023-07-28T00:59:55;0.68;;;0.35;;
68655;SDS011;55638;51.122;13.606;2023-07-28T01:01:27;0.60;;;0.43;;
68655;SDS011;55638;51.122;13.606;2023-07-28T01:02:59;0.60;;;0.40;;
68655;SDS011;55638;51.122;13.606;2023-07-28T01:04:31;0.80;;;0.47;;
68655;SDS011;55638;51.122;13.606;2023-07-28T01:07:50;0.60;;;0.50;;
68655;SDS011;55638;51.122;13.606;2023-07-28T01:09:34;0.50;;;0.50;;
68655;SDS011;55638;51.122;13.606;2023-07-28T01:11:14;0.70;;;0.43;;
68655;SDS011;55638;51.122;13.606;2023-07-28T01:12:46;0.50;;;0.47;;
68655;SDS011;55638;51.122;13.606;2023-07-28T01:14:18;0.50;;;0.50;;
68655;SDS011;55638;51.122;13.606;2023-07-28T01:15:50;0.47;;;0.40;;
68655;SDS011;55638;51.122;13.606;2023-07-28T01:17:22;0.50;;;0.40;;
68655;SDS011;55638;51.122;13.606;2023-07-28T01:18:56;0.40;;;0.40;;
68655;SDS011;55638;51.122;13.606;2023-07-28T01:20:29;0.70;;;0.50;;
68655;SDS011;55638;51.122;13.606;2023-07-28T01:24:20;0.63;;;0.50;;
68655;SDS011;55638;51.122;13.606;2023-07-28T01:27:40;1.40;;;0.60;;
68655;SDS011;55638;51.122;13.606;2023-07-28T01:29:14;1.00;;;0.57;;
68655;SDS011;55638;51.122;13.606;2023-07-28T01:30:47;1.65;;;0.60;;
68655;SDS011;55638;51.122;13.606;2023-07-28T01:32:19;1.38;;;0.60;;
68655;SDS011;55638;51.122;13.606;2023-07-28T01:33:51;1.73;;;0.60;;
68655;SDS011;55638;51.122;13.606;2023-07-28T01:35:24;0.40;;;0.40;;
68655;SDS011;55638;51.122;13.606;2023-07-28T01:36:57;1.42;;;0.50;;
68655;SDS011;55638;51.122;13.606;2023-07-28T01:38:29;0.80;;;0.60;;
68655;SDS011;55638;51.122;13.606;2023-07-28T01:40:01;1.00;;;0.70;;
68655;SDS011;55638;51.122;13.606;2023-07-28T01:41:33;1.35;;;0.63;;
68655;SDS011;55638;51.122;13.606;2023-07-28T01:43:05;1.55;;;1.35;;
68655;SDS011;55638;51.122;13.606;2023-07-28T01:44:37;1.90;;;0.63;;
68655;SDS011;55638;51.122;13.606;2023-07-28T01:46:09;0.70;;;0.70;;
68655;SDS011;55638;51.122;13.606;2023-07-28T01:47:41;0.93;;;0.50;;
68655;SDS011;55638;51.122;13.606;2023-07-28T01:49:13;1.42;;;0.70;;
68655;SDS011;55638;51.122;13.606;2023-07-28T01:50:45;1.65;;;0.77;;
68655;SDS011;55638;51.122;13.606;2023-07-28T01:52:17;0.60;;;0.55;;
68655;SDS011;55638;51.122;13.606;2023-07-28T01:53:49;0.40;;;0.40;;
68655;SDS011;55638;51.122;13.606;2023-07-28T01:55:21;0.80;;;0.68;;
68655;SDS011;55638;51.122;13.606;2023-07-28T01:56:53;0.52;;;0.50;;
68655;SDS011;55638;51.122;13.606;2023-07-28T01:58:26;0.70;;;0.70;;
68655;SDS011;55638;51.122;13.606;2023-07-28T01:59:59;0.70;;;0.65;;
68655;SDS011;55638;51.122;13.606;2023-07-28T02:01:31;1.23;;;0.80;;
68655;SDS011;55638;51.122;13.606;2023-07-28T02:03:03;0.93;;;0.60;;
68655;SDS011;55638;51.122;13.606;2023-07-28T02:04:36;0.90;;;0.60;;
68655;SDS011;55638;51.122;13.606;2023-07-28T02:06:08;0.60;;;0.57;;
68655;SDS011;55638;51.122;13.606;2023-07-28T02:07:41;0.70;;;0.60;;
68655;SDS011;55638;51.122;13.606;2023-07-28T02:09:13;0.82;;;0.70;;
68655;SDS011;55638;51.122;13.606;2023-07-28T02:10:45;0.70;;;0.70;;
68655;SDS011;55638;51.122;13.606;2023-07-28T02:12:17;2.28;;;0.70;;
68655;SDS011;55638;51.122;13.606;2023-07-28T02:13:49;1.25;;;0.52;;
68655;SDS011;55638;51.122;13.606;2023-07-28T02:15:22;0.95;;;0.60;;
68655;SDS011;55638;51.122;13.606;2023-07-28T02:16:54;1.60;;;0.50;;
68655;SDS011;55638;51.122;13.606;2023-07-28T02:18:26;0.80;;;0.70;;
68655;SDS011;55638;51.122;13.606;2023-07-28T02:19:58;1.10;;;0.50;;
68655;SDS011;55638;51.122;13.606;2023-07-28T02:21:30;3.50;;;0.75;;
68655;SDS011;55638;51.122;13.606;2023-07-28T02:23:02;1.52;;;0.60;;
68655;SDS011;55638;51.122;13.606;2023-07-28T02:24:34;1.15;;;0.60;;
68655;SDS011;55638;51.122;13.606;2023-07-28T02:26:06;0.77;;;0.60;;
68655;SDS011;55638;51.122;13.606;2023-07-28T02:27:38;0.70;;;0.60;;
68655;SDS011;55638;51.122;13.606;2023-07-28T02:29:10;0.90;;;0.60;;
68655;SDS011;55638;51.122;13.606;2023-07-28T02:30:42;0.52;;;0.50;;
68655;SDS011;55638;51.122;13.606;2023-07-28T02:32:14;1.30;;;0.70;;
68655;SDS011;55638;51.122;13.606;2023-07-28T02:33:46;0.68;;;0.60;;
68655;SDS011;55638;51.122;13.606;2023-07-28T02:35:18;1.48;;;0.50;;
68655;SDS011;55638;51.122;13.606;2023-07-28T02:36:52;1.23;;;0.47;;
68655;SDS011;55638;51.122;13.606;2023-07-28T02:38:24;0.77;;;0.47;;
68655;SDS011;55638;51.122;13.606;2023-07-28T02:39:56;0.45;;;0.40;;
68655;SDS011;55638;51.122;13.606;2023-07-28T02:41:28;0.88;;;0.60;;
68655;SDS011;55638;51.122;13.606;2023-07-28T02:43:00;0.60;;;0.40;;
68655;SDS011;55638;51.122;13.606;2023-07-28T02:44:31;0.95;;;0.57;;
68655;SDS011;55638;51.122;13.606;2023-07-28T02:46:04;0.40;;;0.40;;
68655;SDS011;55638;51.122;13.606;2023-07-28T02:47:36;0.65;;;0.47;;
68655;SDS011;55638;51.122;13.606;2023-07-28T02:49:09;0.80;;;0.50;;
68655;SDS011;55638;51.122;13.606;2023-07-28T02:50:45;0.73;;;0.40;;
68655;SDS011;55638;51.122;13.606;2023-07-28T02:52:17;1.00;;;0.57;;
68655;SDS011;55638;51.122;13.606;2023-07-28T02:53:49;1.23;;;0.60;;
68655;SDS011;55638;51.122;13.606;2023-07-28T02:55:21;0.68;;;0.50;;
68655;SDS011;55638;51.122;13.606;2023-07-28T02:56:53;1.52;;;0.70;;
68655;SDS011;55638;51.122;13.606;2023-07-28T02:58:25;1.25;;;0.50;;
68655;SDS011;55638;51.122;13.606;2023-07-28T02:59:57;0.45;;;0.32;;
68655;SDS011;55638;51.122;13.606;2023-07-28T03:01:30;0.60;;;0.40;;
68655;SDS011;55638;51.122;13.606;2023-07-28T03:03:07;0.57;;;0.40;;
68655;SDS011;55638;51.122;13.606;2023-07-28T03:04:42;0.43;;;0.43;;
68655;SDS011;55638;51.122;13.606;2023-07-28T03:06:20;0.47;;;0.40;;
68655;SDS011;55638;51.122;13.606;2023-07-28T03:07:52;1.08;;;0.50;;
68655;SDS011;55638;51.122;13.606;2023-07-28T03:09:24;0.80;;;0.50;;
68655;SDS011;55638;51.122;13.606;2023-07-28T03:11:06;0.95;;;0.40;;
68655;SDS011;55638;51.122;13.606;2023-07-28T03:12:38;0.55;;;0.38;;
68655;SDS011;55638;51.122;13.606;2023-07-28T03:14:10;0.50;;;0.40;;
68655;SDS011;55638;51.122;13.606;2023-07-28T03:15:44;0.65;;;0.40;;
68655;SDS011;55638;51.122;13.606;2023-07-28T03:17:16;1.05;;;0.50;;
68655;SDS011;55638;51.122;13.606;2023-07-28T03:18:50;1.88;;;0.50;;
68655;SDS011;55638;51.122;13.606;2023-07-28T03:20:23;0.70;;;0.50;;
68655;SDS011;55638;51.122;13.606;2023-07-28T03:21:54;0.80;;;0.52;;
68655;SDS011;55638;51.122;13.606;2023-07-28T03:23:26;0.40;;;0.30;;
68655;SDS011;55638;51.122;13.606;2023-07-28T03:24:58;0.30;;;0.30;;
68655;SDS011;55638;51.122;13.606;2023-07-28T03:26:30;0.40;;;0.40;;
68655;SDS011;55638;51.122;13.606;2023-07-28T03:28:03;1.17;;;0.50;;
68655;SDS011;55638;51.122;13.606;2023-07-28T03:29:35;1.02;;;0.50;;
68655;SDS011;55638;51.122;13.606;2023-07-28T03:31:08;1.70;;;0.57;;
68655;SDS011;55638;51.122;13.606;2023-07-28T03:32:40;1.13;;;0.50;;
68655;SDS011;55638;51.122;13.606;2023-07-28T03:34:12;1.00;;;0.60;;
68655;SDS011;55638;51.122;13.606;2023-07-28T03:35:44;1.48;;;0.40;;
68655;SDS011;55638;51.122;13.606;2023-07-28T03:37:17;0.65;;;0.40;;
68655;SDS011;55638;51.122;13.606;2023-07-28T03:38:49;0.50;;;0.40;;
68655;SDS011;55638;51.122;13.606;2023-07-28T03:40:21;1.05;;;0.50;;
68655;SDS011;55638;51.122;13.606;2023-07-28T03:41:56;0.73;;;0.50;;
68655;SDS011;55638;51.122;13.606;2023-07-28T03:43:28;1.48;;;0.40;;
68655;SDS011;55638;51.122;13.606;2023-07-28T03:45:00;0.50;;;0.50;;
68655;SDS011;55638;51.122;13.606;2023-07-28T03:46:32;0.40;;;0.40;;
68655;SDS011;55638;51.122;13.606;2023-07-28T03:48:05;0.28;;;0.28;;
68655;SDS011;55638;51.122;13.606;2023-07-28T03:49:37;0.77;;;0.50;;
68655;SDS011;55638;51.122;13.606;2023-07-28T03:51:09;0.80;;;0.40;;
68655;SDS011;55638;51.122;13.606;2023-07-28T03:52:41;2.60;;;0.90;;
68655;SDS011;55638;51.122;13.606;2023-07-28T03:54:13;1.40;;;0.50;;
68655;SDS011;55638;51.122;13.606;2023-07-28T03:55:45;0.85;;;0.40;;
68655;SDS011;55638;51.122;13.606;2023-07-28T03:57:18;0.40;;;0.40;;
68655;SDS011;55638;51.122;13.606;2023-07-28T03:58:49;0.73;;;0.50;;
68655;SDS011;55638;51.122;13.606;2023-07-28T04:00:21;0.40;;;0.40;;
68655;SDS011;55638;51.122;13.606;2023-07-28T04:01:53;0.40;;;0.40;;
68655;SDS011;55638;51.122;13.606;2023-07-28T04:03:25;0.55;;;0.40;;
68655;SDS011;55638;51.122;13.606;2023-07-28T04:04:57;0.68;;;0.50;;
68655;SDS011;55638;51.122;13.606;2023-07-28T04:06:43;1.08;;;0.40;;
68655;SDS011;55638;51.122;13.606;2023-07-28T04:08:17;0.35;;;0.35;;
68655;SDS011;55638;51.122;13.606;2023-07-28T04:09:48;0.40;;;0.40;;
68655;SDS011;55638;51.122;13.606;2023-07-28T04:11:20;1.02;;;0.60;;
68655;SDS011;55638;51.122;13.606;2023-07-28T04:12:52;1.02;;;0.50;;
68655;SDS011;55638;51.122;13.606;2023-07-28T04:14:25;0.90;;;0.50;;
68655;SDS011;55638;51.122;13.606;2023-07-28T04:15:59;0.40;;;0.35;;
68655;SDS011;55638;51.122;13.606;2023-07-28T04:17:33;1.58;;;0.47;;
68655;SDS011;55638;51.122;13.606;2023-07-28T04:19:05;0.45;;;0.30;;
68655;SDS011;55638;51.122;13.606;2023-07-28T04:20:37;0.50;;;0.40;;
68655;SDS011;55638;51.122;13.606;2023-07-28T04:22:09;0.35;;;0.25;;
68655;SDS011;55638;51.122;13.606;2023-07-28T04:23:41;0.40;;;0.40;;
68655;SDS011;55638;51.122;13.606;2023-07-28T04:25:13;0.52;;;0.40;;
68655;SDS011;55638;51.122;13.606;2023-07-28T04:26:49;2.65;;;0.43;;
68655;SDS011;55638;51.122;13.606;2023-07-28T04:28:22;0.52;;;0.38;;
68655;SDS011;55638;51.122;13.606;2023-07-28T04:29:56;1.55;;;0.57;;
68655;SDS011;55638;51.122;13.606;2023-07-28T04:31:30;1.08;;;0.52;;
68655;SDS011;55638;51.122;13.606;2023-07-28T04:33:07;0.50;;;0.30;;
68655;SDS011;55638;51.122;13.606;2023-07-28T04:34:42;0.30;;;0.22;;
68655;SDS011;55638;51.122;13.606;2023-07-28T04:36:19;0.40;;;0.40;;
68655;SDS011;55638;51.122;13.606;2023-07-28T04:37:51;0.47;;;0.40;;
68655;SDS011;55638;51.122;13.606;2023-07-28T04:39:40;0.47;;;0.30;;
68655;SDS011;55638;51.122;13.606;2023-07-28T04:41:14;2.53;;;0.50;;
68655;SDS011;55638;51.122;13.606;2023-07-28T04:42:56;2.75;;;0.60;;
68655;SDS011;55638;51.122;13.606;2023-07-28T04:44:28;0.50;;;0.50;;
68655;SDS011;55638;51.122;13.606;2023-07-28T04:46:04;0.40;;;0.40;;
68655;SDS011;55638;51.122;13.606;2023-07-28T04:47:36;0.60;;;0.40;;
68655;SDS011;55638;51.122;13.606;2023-07-28T04:49:11;1.23;;;0.65;;
68655;SDS011;55638;51.122;13.606;2023-07-28T04:51:02;1.65;;;0.30;;
68655;SDS011;55638;51.122;13.606;2023-07-28T04:52:54;0.35;;;0.35;;
68655;SDS011;55638;51.122;13.606;2023-07-28T04:54:45;2.50;;;0.45;;
68655;SDS011;55638;51.122;13.606;2023-07-28T04:56:17;0.50;;;0.35;;
68655;SDS011;55638;51.122;13.606;2023-07-28T04:57:49;0.82;;;0.40;;
68655;SDS011;55638;51.122;13.606;2023-07-28T04:59:22;0.30;;;0.30;;
68655;SDS011;55638;51.122;13.606;2023-07-28T05:00:54;1.50;;;0.57;;
68655;SDS011;55638;51.122;13.606;2023-07-28T05:02:26;1.83;;;0.50;;
68655;SDS011;55638;51.122;13.606;2023-07-28T05:03:58;0.30;;;0.30;;
68655;SDS011;55638;51.122;13.606;2023-07-28T05:05:32;0.32;;;0.30;;
68655;SDS011;55638;51.122;13.606;2023-07-28T05:07:04;0.47;;;0.40;;
68655;SDS011;55638;51.122;13.606;2023-07-28T05:08:36;0.40;;;0.30;;
68655;SDS011;55638;51.122;13.606;2023-07-28T05:10:08;0.50;;;0.40;;
68655;SDS011;55638;51.122;13.606;2023-07-28T05:11:41;1.15;;;0.40;;
68655;SDS011;55638;51.122;13.606;2023-07-28T05:13:13;2.25;;;0.30;;
68655;SDS011;55638;51.122;13.606;2023-07-28T05:14:54;0.20;;;0.20;;
68655;SDS011;55638;51.122;13.606;2023-07-28T05:16:25;0.60;;;0.30;;
68655;SDS011;55638;51.122;13.606;2023-07-28T05:18:06;0.30;;;0.30;;
68655;SDS011;55638;51.122;13.606;2023-07-28T05:19:59;0.35;;;0.22;;
68655;SDS011;55638;51.122;13.606;2023-07-28T05:21:40;1.33;;;0.38;;
68655;SDS011;55638;51.122;13.606;2023-07-28T05:23:14;0.40;;;0.40;;
68655;SDS011;55638;51.122;13.606;2023-07-28T05:24:46;0.40;;;0.32;;
68655;SDS011;55638;51.122;13.606;2023-07-28T05:26:19;0.50;;;0.43;;
68655;SDS011;55638;51.122;13.606;2023-07-28T05:27:51;0.68;;;0.43;;
68655;SDS011;55638;51.122;13.606;2023-07-28T05:29:23;0.50;;;0.35;;
68655;SDS011;55638;51.122;13.606;2023-07-28T05:31:03;1.20;;;0.40;;
68655;SDS011;55638;51.122;13.606;2023-07-28T05:32:36;0.40;;;0.40;;
68655;SDS011;55638;51.122;13.606;2023-07-28T05:34:31;1.40;;;0.40;;
68655;SDS011;55638;51.122;13.606;2023-07-28T05:36:04;0.40;;;0.40;;
68655;SDS011;55638;51.122;13.606;2023-07-28T05:37:37;0.30;;;0.20;;
68655;SDS011;55638;51.122;13.606;2023-07-28T05:39:09;0.50;;;0.40;;
68655;SDS011;55638;51.122;13.606;2023-07-28T05:40:46;0.43;;;0.40;;
68655;SDS011;55638;51.122;13.606;2023-07-28T05:42:18;1.75;;;0.50;;
68655;SDS011;55638;51.122;13.606;2023-07-28T05:43:51;0.20;;;0.20;;
68655;SDS011;55638;51.122;13.606;2023-07-28T05:45:23;0.25;;;0.22;;
68655;SDS011;55638;51.122;13.606;2023-07-28T05:46:55;0.40;;;0.28;;
68655;SDS011;55638;51.122;13.606;2023-07-28T05:48:27;1.00;;;0.30;;
68655;SDS011;55638;51.122;13.606;2023-07-28T05:49:59;0.52;;;0.47;;
68655;SDS011;55638;51.122;13.606;2023-07-28T05:51:35;0.50;;;0.30;;
68655;SDS011;55638;51.122;13.606;2023-07-28T05:53:08;0.82;;;0.30;;
68655;SDS011;55638;51.122;13.606;2023-07-28T05:54:40;0.30;;;0.30;;
68655;SDS011;55638;51.122;13.606;2023-07-28T05:56:12;0.30;;;0.30;;
68655;SDS011;55638;51.122;13.606;2023-07-28T05:57:43;0.40;;;0.30;;
68655;SDS011;55638;51.122;13.606;2023-07-28T05:59:16;0.60;;;0.30;;
68655;SDS011;55638;51.122;13.606;2023-07-28T06:00:48;0.45;;;0.30;;
68655;SDS011;55638;51.122;13.606;2023-07-28T06:02:39;0.20;;;0.20;;
68655;SDS011;55638;51.122;13.606;2023-07-28T06:04:16;0.50;;;0.22;;
68655;SDS011;55638;51.122;13.606;2023-07-28T06:05:51;0.30;;;0.28;;
68655;SDS011;55638;51.122;13.606;2023-07-28T06:07:23;0.55;;;0.30;;
68655;SDS011;55638;51.122;13.606;2023-07-28T06:08:57;0.63;;;0.40;;
68655;SDS011;55638;51.122;13.606;2023-07-28T06:10:30;0.32;;;0.32;;
68655;SDS011;55638;51.122;13.606;2023-07-28T06:12:02;0.45;;;0.40;;
68655;SDS011;55638;51.122;13.606;2023-07-28T06:13:34;0.40;;;0.30;;
68655;SDS011;55638;51.122;13.606;2023-07-28T06:15:06;2.17;;;0.40;;
68655;SDS011;55638;51.122;13.606;2023-07-28T06:16:41;0.50;;;0.40;;
68655;SDS011;55638;51.122;13.606;2023-07-28T06:18:14;0.30;;;0.30;;
68655;SDS011;55638;51.122;13.606;2023-07-28T06:19:54;0.73;;;0.45;;
68655;SDS011;55638;51.122;13.606;2023-07-28T06:21:26;0.60;;;0.30;;
68655;SDS011;55638;51.122;13.606;2023-07-28T06:22:58;0.60;;;0.40;;
68655;SDS011;55638;51.122;13.606;2023-07-28T06:24:30;0.82;;;0.40;;
68655;SDS011;55638;51.122;13.606;2023-07-28T06:26:04;0.47;;;0.30;;
68655;SDS011;55638;51.122;13.606;2023-07-28T06:27:36;1.35;;;0.30;;
68655;SDS011;55638;51.122;13.606;2023-07-28T06:29:10;0.88;;;0.40;;
68655;SDS011;55638;51.122;13.606;2023-07-28T06:30:42;0.30;;;0.30;;
68655;SDS011;55638;51.122;13.606;2023-07-28T06:32:14;0.30;;;0.30;;
68655;SDS011;55638;51.122;13.606;2023-07-28T06:33:47;0.50;;;0.30;;
68655;SDS011;55638;51.122;13.606;2023-07-28T06:35:19;0.93;;;0.40;;
68655;SDS011;55638;51.122;13.606;2023-07-28T06:36:51;0.55;;;0.30;;
68655;SDS011;55638;51.122;13.606;2023-07-28T06:38:23;0.20;;;0.20;;
68655;SDS011;55638;51.122;13.606;2023-07-28T06:39:55;0.50;;;0.40;;
68655;SDS011;55638;51.122;13.606;2023-07-28T06:41:28;0.90;;;0.40;;
68655;SDS011;55638;51.122;13.606;2023-07-28T06:43:04;0.30;;;0.30;;
68655;SDS011;55638;51.122;13.606;2023-07-28T06:44:38;1.30;;;0.30;;
68655;SDS011;55638;51.122;13.606;2023-07-28T06:46:09;0.50;;;0.30;;
68655;SDS011;55638;51.122;13.606;2023-07-28T06:47:42;0.40;;;0.22;;
68655;SDS011;55638;51.122;13.606;2023-07-28T06:49:15;0.40;;;0.20;;
68655;SDS011;55638;51.122;13.606;2023-07-28T06:50:47;0.25;;;0.25;;
68655;SDS011;55638;51.122;13.606;2023-07-28T06:52:19;0.30;;;0.30;;
68655;SDS011;55638;51.122;13.606;2023-07-28T06:53:51;0.40;;;0.30;;
68655;SDS011;55638;51.122;13.606;2023-07-28T06:55:23;0.50;;;0.50;;
68655;SDS011;55638;51.122;13.606;2023-07-28T06:56:55;0.45;;;0.35;;
68655;SDS011;55638;51.122;13.606;2023-07-28T06:58:27;0.40;;;0.20;;
68655;SDS011;55638;51.122;13.606;2023-07-28T07:00:00;0.30;;;0.20;;
68655;SDS011;55638;51.122;13.606;2023-07-28T07:01:34;0.85;;;0.30;;
68655;SDS011;55638;51.122;13.606;2023-07-28T07:03:09;0.20;;;0.20;;
68655;SDS011;55638;51.122;13.606;2023-07-28T07:04:42;0.47;;;0.20;;
68655;SDS011;55638;51.122;13.606;2023-07-28T07:06:14;0.30;;;0.30;;
68655;SDS011;55638;51.122;13.606;2023-07-28T07:07:46;0.50;;;0.20;;
68655;SDS011;55638;51.122;13.606;2023-07-28T07:09:18;0.10;;;0.10;;
68655;SDS011;55638;51.122;13.606;2023-07-28T07:10:52;0.38;;;0.20;;
68655;SDS011;55638;51.122;13.606;2023-07-28T07:12:24;0.15;;;0.15;;
68655;SDS011;55638;51.122;13.606;2023-07-28T07:13:56;0.13;;;0.10;;
68655;SDS011;55638;51.122;13.606;2023-07-28T07:15:28;0.17;;;0.13;;
68655;SDS011;55638;51.122;13.606;2023-07-28T07:17:00;0.10;;;0.10;;
68655;SDS011;55638;51.122;13.606;2023-07-28T07:18:33;0.65;;;0.20;;
68655;SDS011;55638;51.122;13.606;2023-07-28T07:20:05;0.20;;;0.20;;
68655;SDS011;55638;51.122;13.606;2023-07-28T07:21:38;0.57;;;0.20;;
68655;SDS011;55638;51.122;13.606;2023-07-28T07:23:10;0.15;;;0.10;;
68655;SDS011;55638;51.122;13.606;2023-07-28T07:24:42;0.10;;;0.10;;
68655;SDS011;55638;51.122;13.606;2023-07-28T07:26:14;1.75;;;0.13;;
68655;SDS011;55638;51.122;13.606;2023-07-28T07:27:46;0.20;;;0.10;;
68655;SDS011;55638;51.122;13.606;2023-07-28T07:29:18;0.65;;;0.20;;
68655;SDS011;55638;51.122;13.606;2023-07-28T07:30:50;0.13;;;0.10;;
68655;SDS011;55638;51.122;13.606;2023-07-28T07:32:22;0.35;;;0.20;;
68655;SDS011;55638;51.122;13.606;2023-07-28T07:33:54;0.28;;;0.25;;
68655;SDS011;55638;51.122;13.606;2023-07-28T07:35:26;0.10;;;0.10;;
68655;SDS011;55638;51.122;13.606;2023-07-28T07:36:58;0.65;;;0.20;;
68655;SDS011;55638;51.122;13.606;2023-07-28T07:38:29;0.20;;;0.20;;
68655;SDS011;55638;51.122;13.606;2023-07-28T07:40:01;0.47;;;0.20;;
68655;SDS011;55638;51.122;13.606;2023-07-28T07:41:34;0.20;;;0.10;;
68655;SDS011;55638;51.122;13.606;2023-07-28T07:43:06;0.10;;;0.10;;
68655;SDS011;55638;51.122;13.606;2023-07-28T07:44:38;0.20;;;0.20;;
68655;SDS011;55638;51.122;13.606;2023-07-28T07:46:10;0.50;;;0.20;;
68655;SDS011;55638;51.122;13.606;2023-07-28T07:47:42;0.73;;;0.20;;
68655;SDS011;55638;51.122;13.606;2023-07-28T07:49:15;0.82;;;0.20;;
68655;SDS011;55638;51.122;13.606;2023-07-28T07:50:47;0.38;;;0.30;;
68655;SDS011;55638;51.122;13.606;2023-07-28T07:52:18;0.50;;;0.15;;
68655;SDS011;55638;51.122;13.606;2023-07-28T07:53:50;0.15;;;0.10;;
68655;SDS011;55638;51.122;13.606;2023-07-28T07:55:22;0.73;;;0.20;;
68655;SDS011;55638;51.122;13.606;2023-07-28T07:56:54;0.20;;;0.20;;
68655;SDS011;55638;51.122;13.606;2023-07-28T07:58:26;0.77;;;0.20;;
68655;SDS011;55638;51.122;13.606;2023-07-28T07:59:59;0.73;;;0.20;;
68655;SDS011;55638;51.122;13.606;2023-07-28T08:01:32;0.55;;;0.20;;
68655;SDS011;55638;51.122;13.606;2023-07-28T08:03:05;0.30;;;0.20;;
68655;SDS011;55638;51.122;13.606;2023-07-28T08:04:36;0.10;;;0.10;;
68655;SDS011;55638;51.122;13.606;2023-07-28T08:06:09;0.20;;;0.20;;
68655;SDS011;55638;51.122;13.606;2023-07-28T08:07:43;0.65;;;0.20;;
68655;SDS011;55638;51.122;13.606;2023-07-28T08:09:16;0.20;;;0.10;;
68655;SDS011;55638;51.122;13.606;2023-07-28T08:10:48;0.20;;;0.20;;
68655;SDS011;55638;51.122;13.606;2023-07-28T08:12:20;1.45;;;0.20;;
68655;SDS011;55638;51.122;13.606;2023-07-28T08:13:52;0.43;;;0.30;;
68655;SDS011;55638;51.122;13.606;2023-07-28T08:15:24;0.10;;;0.10;;
68655;SDS011;55638;51.122;13.606;2023-07-28T08:16:57;0.22;;;0.20;;
68655;SDS011;55638;51.122;13.606;2023-07-28T08:18:29;0.47;;;0.25;;
68655;SDS011;55638;51.122;13.606;2023-07-28T08:20:01;0.20;;;0.20;;
68655;SDS011;55638;51.122;13.606;2023-07-28T08:21:33;0.20;;;0.20;;
68655;SDS011;55638;51.122;13.606;2023-07-28T08:23:08;0.40;;;0.30;;
68655;SDS011;55638;51.122;13.606;2023-07-28T08:24:40;0.60;;;0.15;;
68655;SDS011;55638;51.122;13.606;2023-07-28T08:26:12;0.20;;;0.20;;
68655;SDS011;55638;51.122;13.606;2023-07-28T08:27:46;0.55;;;0.20;;
68655;SDS011;55638;51.122;13.606;2023-07-28T08:29:18;0.10;;;0.10;;
68655;SDS011;55638;51.122;13.606;2023-07-28T08:30:54;1.48;;;0.32;;
68655;SDS011;55638;51.122;13.606;2023-07-28T08:32:29;0.88;;;0.20;;
68655;SDS011;55638;51.122;13.606;2023-07-28T08:34:01;0.13;;;0.13;;
68655;SDS011;55638;51.122;13.606;2023-07-28T08:35:34;0.17;;;0.17;;
68655;SDS011;55638;51.122;13.606;2023-07-28T08:37:06;0.47;;;0.20;;
68655;SDS011;55638;51.122;13.606;2023-07-28T08:38:38;0.30;;;0.20;;
68655;SDS011;55638;51.122;13.606;2023-07-28T08:40:10;0.47;;;0.40;;
68655;SDS011;55638;51.122;13.606;2023-07-28T08:41:43;0.20;;;0.20;;
68655;SDS011;55638;51.122;13.606;2023-07-28T08:43:15;0.45;;;0.20;;
68655;SDS011;55638;51.122;13.606;2023-07-28T08:44:47;0.10;;;0.10;;
68655;SDS011;55638;51.122;13.606;2023-07-28T08:46:20;0.10;;;0.10;;
68655;SDS011;55638;51.122;13.606;2023-07-28T08:47:52;0.47;;;0.20;;
68655;SDS011;55638;51.122;13.606;2023-07-28T08:49:24;0.10;;;0.10;;
68655;SDS011;55638;51.122;13.606;2023-07-28T08:50:56;1.15;;;0.20;;
68655;SDS011;55638;51.122;13.606;2023-07-28T08:52:28;0.20;;;0.20;;
68655;SDS011;55638;51.122;13.606;2023-07-28T08:54:00;0.63;;;0.20;;
68655;SDS011;55638;51.122;13.606;2023-07-28T08:55:32;0.10;;;0.10;;
68655;SDS011;55638;51.122;13.606;2023-07-28T08:57:04;0.20;;;0.20;;
68655;SDS011;55638;51.122;13.606;2023-07-28T08:58:36;0.32;;;0.22;;
68655;SDS011;55638;51.122;13.606;2023-07-28T09:00:09;0.30;;;0.30;;
68655;SDS011;55638;51.122;13.606;2023-07-28T09:01:44;0.20;;;0.20;;
68655;SDS011;55638;51.122;13.606;2023-07-28T09:03:18;0.32;;;0.20;;
68655;SDS011;55638;51.122;13.606;2023-07-28T09:04:51;0.30;;;0.30;;
68655;SDS011;55638;51.122;13.606;2023-07-28T09:06:29;0.20;;;0.20;;
68655;SDS011;55638;51.122;13.606;2023-07-28T09:08:02;1.60;;;0.30;;
68655;SDS011;55638;51.122;13.606;2023-07-28T09:09:36;0.47;;;0.10;;
68655;SDS011;55638;51.122;13.606;2023-07-28T09:11:08;0.20;;;0.20;;
68655;SDS011;55638;51.122;13.606;2023-07-28T09:12:47;1.15;;;0.10;;
68655;SDS011;55638;51.122;13.606;2023-07-28T09:14:21;0.28;;;0.10;;
68655;SDS011;55638;51.122;13.606;2023-07-28T09:15:56;0.35;;;0.20;;
68655;SDS011;55638;51.122;13.606;2023-07-28T09:17:31;0.10;;;0.10;;